createdAt,value
2018-04-17T00:01:09.552Z,0
2018-04-17T00:02:31.094Z,0
2018-04-17T00:03:53.218Z,0
2018-04-17T00:05:15.276Z,0
2018-04-17T00:06:37.326Z,0
2018-04-17T00:07:59.147Z,0
2018-04-17T00:09:20.679Z,0
2018-04-17T00:10:42.763Z,0
2018-04-17T00:12:04.314Z,0
2018-04-17T00:13:26.103Z,0
2018-04-17T00:14:48.158Z,0
2018-04-17T00:16:10.225Z,0
2018-04-17T00:17:31.758Z,0
2018-04-17T00:18:53.570Z,0
2018-04-17T00:20:15.627Z,0
2018-04-17T00:21:37.691Z,0
2018-04-17T00:22:58.705Z,0
2018-04-17T00:24:20.509Z,0
2018-04-17T00:25:42.586Z,0
2018-04-17T00:27:04.382Z,0
2018-04-17T00:28:26.443Z,0
2018-04-17T00:29:48.245Z,0
2018-04-17T00:31:10.037Z,0
2018-04-17T00:32:32.183Z,0
2018-04-17T00:33:53.713Z,0
2018-04-17T00:35:15.241Z,0
2018-04-17T00:36:36.770Z,0
2018-04-17T00:37:58.323Z,0
2018-04-17T00:39:20.390Z,0
2018-04-17T00:40:42.497Z,0
2018-04-17T00:42:04.582Z,0
2018-04-17T00:43:26.106Z,0
2018-04-17T00:44:47.643Z,0
2018-04-17T00:46:09.721Z,0
2018-04-17T00:47:31.535Z,0
2018-04-17T00:48:53.081Z,0
2018-04-17T00:50:15.133Z,0
2018-04-17T00:51:36.398Z,0
2018-04-17T00:52:58.450Z,0
2018-04-17T00:54:20.499Z,0
2018-04-17T00:55:42.556Z,0
2018-04-17T00:57:03.829Z,0
2018-04-17T00:58:25.891Z,0
2018-04-17T00:59:47.434Z,0
2018-04-17T01:01:09.227Z,0
2018-04-17T01:02:31.012Z,0
2018-04-17T01:03:53.080Z,0
2018-04-17T01:05:14.879Z,0
2018-04-17T01:06:36.954Z,0
2018-04-17T01:07:59.014Z,0
2018-04-17T01:09:20.824Z,0
2018-04-17T01:10:42.613Z,0
2018-04-17T01:12:04.675Z,0
2018-04-17T01:13:26.768Z,0
2018-04-17T01:14:48.295Z,0
2018-04-17T01:16:10.093Z,0
2018-04-17T01:17:32.168Z,0
2018-04-17T01:18:54.223Z,0
2018-04-17T01:20:16.284Z,0
2018-04-17T01:21:38.098Z,0
2018-04-17T01:22:59.904Z,0
2018-04-17T01:24:21.950Z,0
2018-04-17T01:25:43.765Z,0
2018-04-17T01:27:05.558Z,0
2018-04-17T01:28:27.109Z,0
2018-04-17T01:29:49.167Z,0
2018-04-17T01:31:10.696Z,0
2018-04-17T01:32:32.757Z,0
2018-04-17T01:33:54.805Z,0
2018-04-17T01:35:16.619Z,0
2018-04-17T01:36:38.671Z,0
2018-04-17T01:38:00.733Z,0
2018-04-17T01:39:22.253Z,0
2018-04-17T01:40:43.790Z,0
2018-04-17T01:42:05.847Z,0
2018-04-17T01:43:27.901Z,0
2018-04-17T01:44:49.947Z,0
2018-04-17T01:46:11.820Z,0
2018-04-17T01:47:33.629Z,0
2018-04-17T01:48:55.685Z,0
2018-04-17T01:50:17.483Z,0
2018-04-17T01:51:39.282Z,0
2018-04-17T01:53:01.068Z,0
2018-04-17T01:54:22.872Z,0
2018-04-17T01:55:44.405Z,0
2018-04-17T01:57:06.205Z,0
2018-04-17T01:58:27.992Z,0
2018-04-17T01:59:49.796Z,0
2018-04-17T02:01:11.873Z,0
2018-04-17T02:02:33.662Z,0
2018-04-17T02:03:55.201Z,0
2018-04-17T02:05:16.997Z,0
2018-04-17T02:06:38.528Z,0
2018-04-17T02:08:00.570Z,0
2018-04-17T02:09:22.102Z,0
2018-04-17T02:10:43.912Z,0
2018-04-17T02:12:05.998Z,0
2018-04-17T02:13:28.061Z,0
2018-04-17T02:14:49.839Z,0
2018-04-17T02:16:11.627Z,0
2018-04-17T02:17:33.691Z,0
2018-04-17T02:18:55.749Z,0
2018-04-17T02:20:17.806Z,0
2018-04-17T02:21:39.337Z,0
2018-04-17T02:23:00.875Z,0
2018-04-17T02:24:22.671Z,0
2018-04-17T02:25:44.732Z,0
2018-04-17T02:27:06.261Z,0
2018-04-17T02:28:28.059Z,0
2018-04-17T02:29:50.125Z,0
2018-04-17T02:31:12.184Z,0
2018-04-17T02:32:33.721Z,0
2018-04-17T02:33:55.530Z,0
2018-04-17T02:35:17.353Z,0
2018-04-17T02:36:39.419Z,0
2018-04-17T02:38:01.211Z,0
2018-04-17T02:39:22.752Z,0
2018-04-17T02:40:44.275Z,0
2018-04-17T02:42:06.073Z,0
2018-04-17T02:43:27.602Z,0
2018-04-17T02:44:49.656Z,0
2018-04-17T02:46:11.708Z,0
2018-04-17T02:47:33.617Z,0
2018-04-17T02:48:55.419Z,0
2018-04-17T02:50:17.222Z,0
2018-04-17T02:51:39.289Z,0
2018-04-17T02:53:01.350Z,0
2018-04-17T02:54:23.142Z,0
2018-04-17T02:55:44.946Z,0
2018-04-17T02:57:06.765Z,0
2018-04-17T02:58:28.306Z,0
2018-04-17T02:59:50.094Z,0
2018-04-17T03:01:12.147Z,0
2018-04-17T03:02:34.198Z,0
2018-04-17T03:03:55.993Z,0
2018-04-17T03:05:17.785Z,0
2018-04-17T03:06:39.062Z,0
2018-04-17T03:08:00.593Z,0
2018-04-17T03:09:22.652Z,0
2018-04-17T03:10:44.443Z,0
2018-04-17T03:12:05.959Z,0
2018-04-17T03:13:28.019Z,0
2018-04-17T03:14:50.070Z,0
2018-04-17T03:16:11.358Z,0
2018-04-17T03:17:32.877Z,0
2018-04-17T03:18:54.398Z,0
2018-04-17T03:20:16.182Z,0
2018-04-17T03:21:37.979Z,0
2018-04-17T03:22:59.791Z,0
2018-04-17T03:24:21.608Z,0
2018-04-17T03:25:43.140Z,0
2018-04-17T03:27:04.939Z,0
2018-04-17T03:28:26.727Z,0
2018-04-17T03:29:48.783Z,0
2018-04-17T03:31:10.570Z,0
2018-04-17T03:32:32.370Z,0
2018-04-17T03:33:54.433Z,0
2018-04-17T03:35:15.965Z,0
2018-04-17T03:36:37.505Z,0
2018-04-17T03:37:59.558Z,0
2018-04-17T03:39:20.846Z,0
2018-04-17T03:40:42.914Z,0
2018-04-17T03:42:04.966Z,0
2018-04-17T03:43:26.772Z,4
2018-04-17T03:44:48.807Z,4
2018-04-17T03:46:10.878Z,4
2018-04-17T03:47:32.974Z,4
2018-04-17T03:48:54.498Z,4
2018-04-17T03:50:16.302Z,8
2018-04-17T03:51:38.369Z,8
2018-04-17T03:52:59.897Z,8
2018-04-17T03:54:21.960Z,12
2018-04-17T03:55:43.497Z,12
2018-04-17T03:57:05.307Z,16
2018-04-17T03:58:27.093Z,20
2018-04-17T03:59:49.157Z,24
2018-04-17T04:01:11.209Z,32
2018-04-17T04:02:33.292Z,36
2018-04-17T04:03:54.841Z,44
2018-04-17T04:05:16.630Z,52
2018-04-17T04:06:38.443Z,56
2018-04-17T04:08:00.226Z,68
2018-04-17T04:09:22.009Z,80
2018-04-17T04:10:44.125Z,88
2018-04-17T04:12:06.168Z,88
2018-04-17T04:13:28.224Z,96
2018-04-17T04:14:50.073Z,104
2018-04-17T04:16:12.158Z,120
2018-04-17T04:17:34.239Z,144
2018-04-17T04:18:56.280Z,176
2018-04-17T04:20:18.348Z,200
2018-04-17T04:21:40.138Z,248
2018-04-17T04:23:02.181Z,288
2018-04-17T04:24:23.713Z,340
2018-04-17T04:25:45.769Z,416
2018-04-17T04:27:07.327Z,468
2018-04-17T04:28:29.414Z,504
2018-04-17T04:29:51.469Z,520
2018-04-17T04:31:13.264Z,532
2018-04-17T04:32:35.091Z,564
2018-04-17T04:33:56.895Z,592
2018-04-17T04:35:18.957Z,648
2018-04-17T04:36:40.742Z,684
2018-04-17T04:38:02.305Z,712
2018-04-17T04:39:23.848Z,764
2018-04-17T04:40:45.371Z,832
2018-04-17T04:42:07.429Z,896
2018-04-17T04:43:29.237Z,988
2018-04-17T04:44:51.320Z,1048
2018-04-17T04:46:13.380Z,1200
2018-04-17T04:47:34.924Z,1208
2018-04-17T04:48:56.711Z,1320
2018-04-17T04:50:18.514Z,1400
2018-04-17T04:51:40.299Z,1488
2018-04-17T04:53:01.831Z,1588
2018-04-17T04:54:23.893Z,1676
2018-04-17T04:55:45.421Z,1772
2018-04-17T04:57:06.963Z,1932
2018-04-17T04:58:29.023Z,2032
2018-04-17T04:59:50.828Z,2212
2018-04-17T05:01:12.887Z,2304
2018-04-17T05:02:34.959Z,2532
2018-04-17T05:03:57.017Z,2592
2018-04-17T05:05:19.124Z,2612
2018-04-17T05:06:41.184Z,2468
2018-04-17T05:08:02.997Z,2524
2018-04-17T05:09:25.068Z,2784
2018-04-17T05:10:46.879Z,3228
2018-04-17T05:12:08.705Z,3636
2018-04-17T05:13:30.768Z,3856
2018-04-17T05:14:52.839Z,4012
2018-04-17T05:16:14.893Z,3960
2018-04-17T05:17:36.697Z,3912
2018-04-17T05:18:58.533Z,3976
2018-04-17T05:20:20.349Z,4096
2018-04-17T05:21:42.399Z,4180
2018-04-17T05:23:04.188Z,4328
2018-04-17T05:24:25.996Z,4140
2018-04-17T05:25:48.072Z,4396
2018-04-17T05:27:10.126Z,4436
2018-04-17T05:28:31.929Z,4444
2018-04-17T05:29:53.989Z,4584
2018-04-17T05:31:16.045Z,4644
2018-04-17T05:32:38.130Z,5236
2018-04-17T05:33:59.930Z,5804
2018-04-17T05:35:22.012Z,5968
2018-04-17T05:36:43.804Z,6260
2018-04-17T05:38:05.603Z,6632
2018-04-17T05:39:27.403Z,6728
2018-04-17T05:40:49.222Z,6460
2018-04-17T05:42:11.289Z,6476
2018-04-17T05:43:33.361Z,6700
2018-04-17T05:44:55.166Z,6964
2018-04-17T05:46:16.964Z,7232
2018-04-17T05:47:39.029Z,9324
2018-04-17T05:49:01.113Z,7744
2018-04-17T05:50:22.697Z,7664
2018-04-17T05:51:43.971Z,10428
2018-04-17T05:53:06.027Z,9292
2018-04-17T05:54:27.583Z,10448
2018-04-17T05:55:49.221Z,10300
2018-04-17T05:57:11.586Z,9320
2018-04-17T05:58:33.652Z,9280
2018-04-17T05:59:55.720Z,8992
2018-04-17T06:01:17.814Z,9592
2018-04-17T06:02:39.877Z,10436
2018-04-17T06:04:01.673Z,10092
2018-04-17T06:05:23.795Z,9956
2018-04-17T06:06:45.634Z,24224
2018-04-17T06:08:07.178Z,9956
2018-04-17T06:09:28.974Z,10424
2018-04-17T06:10:50.777Z,10196
2018-04-17T06:12:12.613Z,11572
2018-04-17T06:13:34.412Z,11080
2018-04-17T06:14:56.549Z,10724
2018-04-17T06:16:17.825Z,11644
2018-04-17T06:17:39.631Z,12776
2018-04-17T06:19:01.163Z,23776
2018-04-17T06:20:22.970Z,10216
2018-04-17T06:21:44.535Z,32288
2018-04-17T06:23:06.352Z,24448
2018-04-17T06:24:28.150Z,31328
2018-04-17T06:25:49.697Z,10028
2018-04-17T06:27:11.784Z,10752
2018-04-17T06:28:33.585Z,21824
2018-04-17T06:29:55.136Z,32672
2018-04-17T06:31:16.666Z,34208
2018-04-17T06:32:38.768Z,37120
2018-04-17T06:34:00.568Z,10448
2018-04-17T06:35:22.433Z,37152
2018-04-17T06:36:44.251Z,35776
2018-04-17T06:38:06.340Z,38048
2018-04-17T06:39:28.163Z,38720
2018-04-17T06:40:49.447Z,38880
2018-04-17T06:42:11.389Z,40800
2018-04-17T06:43:33.458Z,40544
2018-04-17T06:44:55.277Z,39552
2018-04-17T06:46:17.095Z,40000
2018-04-17T06:47:38.901Z,40544
2018-04-17T06:49:00.792Z,42944
2018-04-17T06:50:22.610Z,43840
2018-04-17T06:51:44.692Z,42464
2018-04-17T06:53:06.858Z,41856
2018-04-17T06:54:28.683Z,42752
2018-04-17T06:55:50.502Z,42784
2018-04-17T06:57:12.587Z,35968
2018-04-17T06:58:34.655Z,27232
2018-04-17T06:59:56.463Z,22592
2018-04-17T07:01:18.044Z,21920
2018-04-17T07:02:40.125Z,21504
2018-04-17T07:04:02.206Z,21184
2018-04-17T07:05:24.349Z,21376
2018-04-17T07:06:46.152Z,21408
2018-04-17T07:08:08.225Z,20864
2018-04-17T07:09:30.315Z,20832
2018-04-17T07:10:52.136Z,20640
2018-04-17T07:12:14.214Z,20416
2018-04-17T07:13:36.298Z,20032
2018-04-17T07:14:57.589Z,19936
2018-04-17T07:16:19.437Z,19648
2018-04-17T07:17:41.509Z,19424
2018-04-17T07:19:03.603Z,18912
2018-04-17T07:20:25.400Z,18816
2018-04-17T07:21:47.484Z,18720
2018-04-17T07:23:09.557Z,18176
2018-04-17T07:24:31.632Z,18080
2018-04-17T07:25:53.707Z,17824
2018-04-17T07:27:15.519Z,17472
2018-04-17T07:28:37.611Z,17568
2018-04-17T07:29:59.421Z,17312
2018-04-17T07:31:21.518Z,17056
2018-04-17T07:32:43.597Z,16960
2018-04-17T07:34:05.414Z,16360
2018-04-17T07:35:27.512Z,16316
2018-04-17T07:36:49.581Z,16172
2018-04-17T07:38:11.667Z,15920
2018-04-17T07:39:33.484Z,15852
2018-04-17T07:40:55.037Z,15804
2018-04-17T07:42:16.335Z,15556
2018-04-17T07:43:38.140Z,15296
2018-04-17T07:44:59.964Z,14796
2018-04-17T07:46:21.792Z,14864
2018-04-17T07:47:43.658Z,14640
2018-04-17T07:49:05.486Z,13484
2018-04-17T07:50:27.545Z,11252
2018-04-17T07:51:49.630Z,9916
2018-04-17T07:53:11.179Z,9060
2018-04-17T07:54:33.254Z,8668
2018-04-17T07:55:54.288Z,8376
2018-04-17T07:57:16.092Z,7912
2018-04-17T07:58:38.186Z,7412
2018-04-17T07:59:59.994Z,7324
2018-04-17T08:01:21.804Z,7388
2018-04-17T08:02:43.618Z,7472
2018-04-17T08:04:05.445Z,7588
2018-04-17T08:05:27.002Z,7648
2018-04-17T08:06:49.084Z,7720
2018-04-17T08:08:10.373Z,7760
2018-04-17T08:09:31.976Z,7780
2018-04-17T08:10:54.058Z,7764
2018-04-17T08:12:16.143Z,7784
2018-04-17T08:13:37.674Z,7672
2018-04-17T08:14:59.237Z,7556
2018-04-17T08:16:21.036Z,7480
2018-04-17T08:17:42.920Z,7532
2018-04-17T08:19:05.222Z,7604
2018-04-17T08:20:27.283Z,7672
2018-04-17T08:21:49.101Z,7792
2018-04-17T08:23:10.920Z,7932
2018-04-17T08:24:33.005Z,7932
2018-04-17T08:25:54.820Z,7972
2018-04-17T08:27:16.654Z,7920
2018-04-17T08:28:38.726Z,7908
2018-04-17T08:30:00.268Z,7968
2018-04-17T08:31:22.333Z,7960
2018-04-17T08:32:44.405Z,7944
2018-04-17T08:34:06.495Z,8020
2018-04-17T08:35:28.296Z,8080
2018-04-17T08:36:50.118Z,8144
2018-04-17T08:38:12.223Z,8204
2018-04-17T08:39:34.040Z,8268
2018-04-17T08:40:55.058Z,8244
2018-04-17T08:42:16.874Z,8224
2018-04-17T08:43:38.933Z,8248
2018-04-17T08:45:00.744Z,8168
2018-04-17T08:46:22.279Z,8080
2018-04-17T08:47:44.353Z,8096
2018-04-17T08:49:05.965Z,8164
2018-04-17T08:50:28.025Z,8212
2018-04-17T08:51:49.553Z,8248
2018-04-17T08:53:11.353Z,8232
2018-04-17T08:54:33.524Z,8284
2018-04-17T08:55:55.598Z,8256
2018-04-17T08:57:17.670Z,8204
2018-04-17T08:58:39.472Z,8168
2018-04-17T09:00:01.020Z,8228
2018-04-17T09:01:23.093Z,8236
2018-04-17T09:02:44.366Z,8144
2018-04-17T09:04:06.205Z,8076
2018-04-17T09:05:28.407Z,7984
2018-04-17T09:06:50.490Z,7836
2018-04-17T09:08:12.557Z,7692
2018-04-17T09:09:34.098Z,7588
2018-04-17T09:10:56.171Z,7580
2018-04-17T09:12:18.000Z,8080
2018-04-17T09:13:39.824Z,7664
2018-04-17T09:15:01.921Z,7552
2018-04-17T09:16:23.474Z,7560
2018-04-17T09:17:45.322Z,7796
2018-04-17T09:19:07.140Z,7780
2018-04-17T09:20:29.206Z,7712
2018-04-17T09:21:51.267Z,8112
2018-04-17T09:23:13.341Z,7824
2018-04-17T09:24:35.425Z,7976
2018-04-17T09:25:57.241Z,8816
2018-04-17T09:27:19.310Z,9412
2018-04-17T09:28:41.136Z,8972
2018-04-17T09:30:03.215Z,8052
2018-04-17T09:31:24.746Z,7564
2018-04-17T09:32:46.815Z,7796
2018-04-17T09:34:08.645Z,8040
2018-04-17T09:35:30.724Z,8160
2018-04-17T09:36:52.274Z,7900
2018-04-17T09:38:14.066Z,7912
2018-04-17T09:39:35.104Z,7768
2018-04-17T09:40:56.909Z,8616
2018-04-17T09:42:18.452Z,9684
2018-04-17T09:43:40.529Z,9992
2018-04-17T09:45:02.349Z,10176
2018-04-17T09:46:24.419Z,11216
2018-04-17T09:47:45.972Z,11948
2018-04-17T09:49:08.028Z,11112
2018-04-17T09:50:29.825Z,10576
2018-04-17T09:51:51.679Z,9472
2018-04-17T09:53:13.757Z,8632
2018-04-17T09:54:35.820Z,8320
2018-04-17T09:55:57.874Z,8500
2018-04-17T09:57:20.024Z,9668
2018-04-17T09:58:41.820Z,10540
2018-04-17T10:00:03.635Z,10272
2018-04-17T10:01:25.708Z,10056
2018-04-17T10:02:47.535Z,10532
2018-04-17T10:04:09.344Z,10764
2018-04-17T10:05:31.408Z,10532
2018-04-17T10:06:53.473Z,11060
2018-04-17T10:08:15.276Z,10724
2018-04-17T10:09:37.348Z,11240
2018-04-17T10:10:58.910Z,12556
2018-04-17T10:12:20.989Z,13116
2018-04-17T10:13:42.266Z,12364
2018-04-17T10:15:04.330Z,12868
2018-04-17T10:16:26.416Z,12084
2018-04-17T10:17:47.963Z,10884
2018-04-17T10:19:10.033Z,11384
2018-04-17T10:20:31.844Z,11584
2018-04-17T10:21:53.654Z,11664
2018-04-17T10:23:15.717Z,12092
2018-04-17T10:24:37.531Z,11928
2018-04-17T10:25:59.349Z,12520
2018-04-17T10:27:21.159Z,13408
2018-04-17T10:28:43.012Z,11992
2018-04-17T10:30:05.093Z,11244
2018-04-17T10:31:27.180Z,11168
2018-04-17T10:32:48.992Z,10876
2018-04-17T10:34:11.067Z,10552
2018-04-17T10:35:33.136Z,10152
2018-04-17T10:36:55.206Z,9868
2018-04-17T10:38:17.287Z,10004
2018-04-17T10:39:39.098Z,10252
2018-04-17T10:41:00.970Z,10148
2018-04-17T10:42:22.785Z,9992
2018-04-17T10:43:44.597Z,9948
2018-04-17T10:45:06.671Z,9976
2018-04-17T10:46:28.207Z,10164
2018-04-17T10:47:50.438Z,10220
2018-04-17T10:49:12.506Z,10464
2018-04-17T10:50:34.343Z,10488
2018-04-17T10:51:56.408Z,11088
2018-04-17T10:53:18.509Z,11856
2018-04-17T10:54:40.341Z,11152
2018-04-17T10:56:02.421Z,10560
2018-04-17T10:57:24.229Z,10472
2018-04-17T10:58:46.049Z,10520
2018-04-17T11:00:07.340Z,10440
2018-04-17T11:01:29.132Z,9868
2018-04-17T11:02:50.944Z,9584
2018-04-17T11:04:12.597Z,10288
2018-04-17T11:05:34.415Z,11172
2018-04-17T11:06:56.223Z,11960
2018-04-17T11:08:18.037Z,11600
2018-04-17T11:09:40.105Z,10868
2018-04-17T11:11:01.916Z,10808
2018-04-17T11:12:23.986Z,10740
2018-04-17T11:13:46.059Z,10756
2018-04-17T11:15:07.629Z,10696
2018-04-17T11:16:29.774Z,10084
2018-04-17T11:17:51.850Z,9988
2018-04-17T11:19:13.398Z,9776
2018-04-17T11:20:34.946Z,9904
2018-04-17T11:21:57.009Z,10848
2018-04-17T11:23:19.217Z,11176
2018-04-17T11:24:41.301Z,11532
2018-04-17T11:26:03.095Z,11308
2018-04-17T11:27:24.915Z,11508
2018-04-17T11:28:46.733Z,12568
2018-04-17T11:30:08.796Z,12140
2018-04-17T11:31:30.613Z,11352
2018-04-17T11:32:52.183Z,10320
2018-04-17T11:34:14.246Z,9628
2018-04-17T11:35:36.325Z,9156
2018-04-17T11:36:58.135Z,9400
2018-04-17T11:38:19.953Z,9992
2018-04-17T11:39:41.763Z,9500
2018-04-17T11:41:03.589Z,8372
2018-04-17T11:42:25.431Z,8032
2018-04-17T11:43:47.252Z,8472
2018-04-17T11:45:09.365Z,8420
2018-04-17T11:46:31.208Z,8572
2018-04-17T11:47:53.025Z,8568
2018-04-17T11:49:15.106Z,7684
2018-04-17T11:50:36.669Z,7292
2018-04-17T11:51:58.774Z,7200
2018-04-17T11:53:20.866Z,7276
2018-04-17T11:54:42.953Z,7028
2018-04-17T11:56:05.034Z,7352
2018-04-17T11:57:27.146Z,8416
2018-04-17T11:58:48.768Z,8584
2018-04-17T12:00:10.583Z,8384
2018-04-17T12:01:32.652Z,7856
2018-04-17T12:02:54.483Z,7280
2018-04-17T12:04:16.581Z,7104
2018-04-17T12:05:38.125Z,6796
2018-04-17T12:07:00.202Z,6648
2018-04-17T12:08:22.013Z,6496
2018-04-17T12:09:43.574Z,6384
2018-04-17T12:11:05.651Z,6476
2018-04-17T12:12:27.732Z,6456
2018-04-17T12:13:49.541Z,6500
2018-04-17T12:15:11.635Z,6424
2018-04-17T12:16:33.443Z,6288
2018-04-17T12:17:55.559Z,5796
2018-04-17T12:19:17.410Z,6068
2018-04-17T12:20:39.311Z,6416
2018-04-17T12:22:00.868Z,6828
2018-04-17T12:23:23.003Z,7172
2018-04-17T12:24:45.075Z,7040
2018-04-17T12:26:06.701Z,7152
2018-04-17T12:27:28.767Z,7324
2018-04-17T12:28:50.606Z,7324
2018-04-17T12:30:12.682Z,7004
2018-04-17T12:31:34.249Z,6844
2018-04-17T12:32:56.050Z,6700
2018-04-17T12:34:18.125Z,6692
2018-04-17T12:35:40.193Z,6524
2018-04-17T12:37:02.050Z,6292
2018-04-17T12:38:23.913Z,6204
2018-04-17T12:39:45.989Z,6404
2018-04-17T12:41:07.806Z,6400
2018-04-17T12:42:29.920Z,6396
2018-04-17T12:43:51.749Z,6680
2018-04-17T12:45:13.863Z,7156
2018-04-17T12:46:35.679Z,7148
2018-04-17T12:47:57.752Z,7144
2018-04-17T12:49:19.909Z,6816
2018-04-17T12:50:41.734Z,6616
2018-04-17T12:52:03.893Z,6544
2018-04-17T12:53:25.450Z,6488
2018-04-17T12:54:47.553Z,6552
2018-04-17T12:56:09.635Z,6296
2018-04-17T12:57:31.183Z,6520
2018-04-17T12:58:53.016Z,6608
2018-04-17T13:00:15.127Z,6264
2018-04-17T13:01:37.233Z,6472
2018-04-17T13:02:59.116Z,6944
2018-04-17T13:04:21.186Z,7216
2018-04-17T13:05:43.283Z,6976
2018-04-17T13:07:05.372Z,6900
2018-04-17T13:08:26.927Z,6736
2018-04-17T13:09:49.018Z,6632
2018-04-17T13:11:11.116Z,6672
2018-04-17T13:12:32.919Z,6576
2018-04-17T13:13:54.749Z,6580
2018-04-17T13:15:16.572Z,6668
2018-04-17T13:16:38.397Z,6568
2018-04-17T13:18:00.493Z,6440
2018-04-17T13:19:22.058Z,6872
2018-04-17T13:20:43.611Z,7532
2018-04-17T13:22:05.687Z,7376
2018-04-17T13:23:27.775Z,7172
2018-04-17T13:24:49.854Z,7404
2018-04-17T13:26:11.680Z,7524
2018-04-17T13:27:33.492Z,7712
2018-04-17T13:28:55.308Z,7792
2018-04-17T13:30:17.378Z,7776
2018-04-17T13:31:39.459Z,8068
2018-04-17T13:33:01.259Z,7604
2018-04-17T13:34:22.560Z,7116
2018-04-17T13:35:44.366Z,6856
2018-04-17T13:37:06.429Z,6756
2018-04-17T13:38:28.371Z,6768
2018-04-17T13:39:50.477Z,6828
2018-04-17T13:41:12.537Z,6836
2018-04-17T13:42:34.793Z,6764
2018-04-17T13:43:56.897Z,6696
2018-04-17T13:45:19.000Z,6748
2018-04-17T13:46:40.825Z,6668
2018-04-17T13:48:02.724Z,6436
2018-04-17T13:49:24.814Z,6100
2018-04-17T13:50:46.904Z,5996
2018-04-17T13:52:09.000Z,5920
2018-04-17T13:53:30.825Z,5884
2018-04-17T13:54:52.379Z,5980
2018-04-17T13:56:14.197Z,6032
2018-04-17T13:57:36.295Z,6064
2018-04-17T13:58:58.411Z,6040
2018-04-17T14:00:20.510Z,6040
2018-04-17T14:01:41.798Z,5784
2018-04-17T14:03:03.905Z,5748
2018-04-17T14:04:25.993Z,5868
2018-04-17T14:05:47.840Z,6368
2018-04-17T14:07:09.953Z,6956
2018-04-17T14:08:32.028Z,6952
2018-04-17T14:09:54.264Z,6912
2018-04-17T14:11:16.134Z,6816
2018-04-17T14:12:37.944Z,6984
2018-04-17T14:14:00.018Z,6904
2018-04-17T14:15:21.317Z,6904
2018-04-17T14:16:43.146Z,6848
2018-04-17T14:18:05.236Z,6940
2018-04-17T14:19:27.044Z,6872
2018-04-17T14:20:49.127Z,6856
2018-04-17T14:22:11.212Z,7052
2018-04-17T14:23:33.072Z,7304
2018-04-17T14:24:55.163Z,7336
2018-04-17T14:26:17.266Z,7300
2018-04-17T14:27:39.367Z,7204
2018-04-17T14:29:01.444Z,7256
2018-04-17T14:30:23.520Z,7300
2018-04-17T14:31:45.618Z,7372
2018-04-17T14:33:07.449Z,7472
2018-04-17T14:34:29.270Z,7484
2018-04-17T14:35:51.355Z,7540
2018-04-17T14:37:13.461Z,7600
2018-04-17T14:38:35.545Z,7640
2018-04-17T14:39:57.626Z,7724
2018-04-17T14:41:19.721Z,7760
2018-04-17T14:42:41.809Z,7752
2018-04-17T14:44:03.885Z,7736
2018-04-17T14:45:25.710Z,7748
2018-04-17T14:46:47.824Z,7720
2018-04-17T14:48:09.936Z,7612
2018-04-17T14:49:32.035Z,7424
2018-04-17T14:50:53.855Z,7312
2018-04-17T14:52:15.934Z,7260
2018-04-17T14:53:38.006Z,7304
2018-04-17T14:54:59.829Z,7348
2018-04-17T14:56:21.940Z,7444
2018-04-17T14:57:43.777Z,7432
2018-04-17T14:59:05.864Z,7372
2018-04-17T15:00:27.461Z,7744
2018-04-17T15:01:49.544Z,7780
2018-04-17T15:03:11.364Z,7844
2018-04-17T15:04:33.450Z,7792
2018-04-17T15:05:55.293Z,7616
2018-04-17T15:07:17.375Z,7436
2018-04-17T15:08:39.237Z,7208
2018-04-17T15:10:01.127Z,7148
2018-04-17T15:11:22.978Z,7024
2018-04-17T15:12:44.824Z,6904
2018-04-17T15:14:06.689Z,6792
2018-04-17T15:15:28.360Z,6740
2018-04-17T15:16:50.162Z,6728
2018-04-17T15:18:12.263Z,6800
2018-04-17T15:19:34.349Z,7000
2018-04-17T15:20:56.439Z,7336
2018-04-17T15:22:18.564Z,7696
2018-04-17T15:23:40.752Z,7932
2018-04-17T15:25:02.866Z,8040
2018-04-17T15:26:24.739Z,7956
2018-04-17T15:27:46.821Z,7820
2018-04-17T15:29:08.905Z,7612
2018-04-17T15:30:30.996Z,7384
2018-04-17T15:31:52.827Z,7012
2018-04-17T15:33:14.913Z,6616
2018-04-17T15:34:37.021Z,6388
2018-04-17T15:35:58.861Z,6248
2018-04-17T15:37:20.746Z,6156
2018-04-17T15:38:42.856Z,6100
2018-04-17T15:40:05.178Z,6048
2018-04-17T15:41:27.045Z,6024
2018-04-17T15:42:48.879Z,6064
2018-04-17T15:44:10.733Z,6144
2018-04-17T15:45:32.575Z,6252
2018-04-17T15:46:54.667Z,6432
2018-04-17T15:48:16.513Z,6700
2018-04-17T15:49:38.634Z,7028
2018-04-17T15:51:00.617Z,7344
2018-04-17T15:52:22.712Z,7640
2018-04-17T15:53:44.823Z,7852
2018-04-17T15:55:06.905Z,8072
2018-04-17T15:56:28.757Z,8244
2018-04-17T15:57:50.868Z,8388
2018-04-17T15:59:12.963Z,8536
2018-04-17T16:00:35.094Z,8704
2018-04-17T16:01:56.940Z,8808
2018-04-17T16:03:19.053Z,8864
2018-04-17T16:04:40.664Z,8752
2018-04-17T16:06:02.778Z,8596
2018-04-17T16:07:24.881Z,8548
2018-04-17T16:08:47.059Z,8440
2018-04-17T16:10:09.261Z,8368
2018-04-17T16:11:30.863Z,8328
2018-04-17T16:12:53.044Z,8248
2018-04-17T16:14:15.183Z,8300
2018-04-17T16:15:37.326Z,8344
2018-04-17T16:16:59.433Z,8284
2018-04-17T16:18:21.550Z,8304
2018-04-17T16:19:43.652Z,8400
2018-04-17T16:21:05.534Z,8308
2018-04-17T16:22:27.644Z,8180
2018-04-17T16:23:49.482Z,8056
2018-04-17T16:25:10.823Z,7956
2018-04-17T16:26:32.957Z,7804
2018-04-17T16:27:54.814Z,7644
2018-04-17T16:29:16.929Z,7560
2018-04-17T16:30:38.770Z,7476
2018-04-17T16:32:00.897Z,7356
2018-04-17T16:33:22.844Z,7260
2018-04-17T16:34:44.945Z,7244
2018-04-17T16:36:07.086Z,7232
2018-04-17T16:37:28.925Z,7064
2018-04-17T16:38:51.050Z,6904
2018-04-17T16:40:13.159Z,6800
2018-04-17T16:41:34.747Z,6684
2018-04-17T16:42:56.884Z,6544
2018-04-17T16:44:19.017Z,6372
2018-04-17T16:45:41.122Z,6208
2018-04-17T16:47:03.227Z,6064
2018-04-17T16:48:26.747Z,5892
2018-04-17T16:49:48.870Z,5576
2018-04-17T16:51:10.468Z,5348
2018-04-17T16:52:32.614Z,5192
2018-04-17T16:53:54.744Z,5076
2018-04-17T16:55:16.894Z,4956
2018-04-17T16:56:39.010Z,4804
2018-04-17T16:58:00.858Z,4600
2018-04-17T16:59:22.987Z,4432
2018-04-17T17:00:44.587Z,4344
2018-04-17T17:02:06.698Z,4204
2018-04-17T17:03:28.833Z,4036
2018-04-17T17:04:50.933Z,3896
2018-04-17T17:06:12.786Z,3752
2018-04-17T17:07:34.909Z,3632
2018-04-17T17:08:56.777Z,3540
2018-04-17T17:10:18.938Z,3452
2018-04-17T17:11:40.776Z,3352
2018-04-17T17:13:02.890Z,3240
2018-04-17T17:14:24.727Z,3132
2018-04-17T17:15:46.565Z,3040
2018-04-17T17:17:08.677Z,2952
2018-04-17T17:18:30.756Z,2868
2018-04-17T17:19:52.593Z,2784
2018-04-17T17:21:14.710Z,2696
2018-04-17T17:22:36.544Z,2608
2018-04-17T17:23:58.653Z,2516
2018-04-17T17:25:20.251Z,2428
2018-04-17T17:26:42.346Z,2340
2018-04-17T17:28:04.172Z,2264
2018-04-17T17:29:26.264Z,2184
2018-04-17T17:30:48.365Z,2104
2018-04-17T17:32:09.930Z,2024
2018-04-17T17:33:31.769Z,1944
2018-04-17T17:34:53.886Z,1880
2018-04-17T17:36:15.972Z,1812
2018-04-17T17:37:38.085Z,1744
2018-04-17T17:38:59.644Z,1676
2018-04-17T17:40:21.222Z,1620
2018-04-17T17:41:43.363Z,1568
2018-04-17T17:43:05.196Z,1508
2018-04-17T17:44:27.389Z,1444
2018-04-17T17:45:49.494Z,1372
2018-04-17T17:47:11.347Z,1300
2018-04-17T17:48:33.499Z,1240
2018-04-17T17:49:55.608Z,1184
2018-04-17T17:51:17.289Z,1136
2018-04-17T17:52:39.425Z,1100
2018-04-17T17:54:01.544Z,1064
2018-04-17T17:55:23.651Z,1032
2018-04-17T17:56:45.796Z,1004
2018-04-17T17:58:07.951Z,972
2018-04-17T17:59:30.109Z,948
2018-04-17T18:00:52.251Z,928
2018-04-17T18:02:14.148Z,920
2018-04-17T18:03:36.260Z,912
2018-04-17T18:04:58.478Z,896
2018-04-17T18:06:20.887Z,872
2018-04-17T18:07:43.040Z,832
2018-04-17T18:09:05.237Z,784
2018-04-17T18:10:26.858Z,736
2018-04-17T18:11:48.984Z,688
2018-04-17T18:13:10.849Z,640
2018-04-17T18:14:32.771Z,596
2018-04-17T18:15:55.005Z,552
2018-04-17T18:17:17.178Z,500
2018-04-17T18:18:39.420Z,452
2018-04-17T18:20:01.779Z,396
2018-04-17T18:21:23.992Z,348
2018-04-17T18:22:46.115Z,304
2018-04-17T18:24:08.312Z,272
2018-04-17T18:25:30.499Z,240
2018-04-17T18:26:52.740Z,212
2018-04-17T18:28:14.955Z,188
2018-04-17T18:29:37.156Z,164
2018-04-17T18:30:59.350Z,148